createdAt,value
2023-02-22T00:04:57.656Z,26.6
2023-02-22T00:10:49.748Z,26.8
2023-02-22T00:16:43.524Z,26.4
2023-02-22T00:22:35.599Z,24.9
2023-02-22T00:28:27.396Z,26.1
2023-02-22T00:34:05.940Z,26.8
2023-02-22T00:39:42.594Z,26.7
2023-02-22T00:45:35.137Z,26.3
2023-02-22T00:50:57.721Z,24.8
2023-02-22T00:56:50.442Z,25.9
2023-02-22T01:02:43.733Z,26.8
2023-02-22T01:08:21.811Z,26.8
2023-02-22T01:14:15.747Z,26.3
2023-02-22T01:19:53.876Z,24.9
2023-02-22T01:25:46.551Z,25.9
2023-02-22T01:31:24.288Z,26.8
2023-02-22T01:37:00.946Z,26.7
2023-02-22T01:42:54.845Z,25.1
2023-02-22T01:48:32.215Z,24.6
2023-02-22T01:54:24.366Z,24
2023-02-22T02:00:16.272Z,24
2023-02-22T02:06:09.056Z,25
2023-02-22T02:12:01.749Z,26.5
2023-02-22T02:17:38.722Z,26.8
2023-02-22T02:23:00.989Z,25.6
2023-02-22T02:28:37.974Z,24.9
2023-02-22T02:34:31.296Z,24.3
2023-02-22T02:40:24.578Z,23.8
2023-02-22T02:45:46.597Z,24.3
2023-02-22T02:51:40.139Z,25.4
2023-02-22T02:57:32.695Z,25.4
2023-02-22T03:03:09.592Z,26.3
2023-02-22T03:09:03.497Z,26.8
2023-02-22T03:14:55.930Z,26.3
2023-02-22T03:20:48.567Z,24.9
2023-02-22T03:26:41.164Z,24.4
2023-02-22T03:32:33.663Z,23.8
2023-02-22T03:38:10.102Z,24.1
2023-02-22T03:43:48.554Z,25.3
2023-02-22T03:49:26.292Z,26.6
2023-02-22T03:55:18.929Z,26.8
2023-02-22T04:00:42.658Z,25.6
2023-02-22T04:06:36.469Z,24.8
2023-02-22T04:11:57.403Z,24.2
2023-02-22T04:17:50.195Z,23.8
2023-02-22T04:23:43.096Z,24.1
2023-02-22T04:29:34.492Z,25.5
2023-02-22T04:35:12.368Z,26.6
2023-02-22T04:40:51.550Z,26.8
2023-02-22T04:46:28.071Z,25.6
2023-02-22T04:52:23.317Z,24.8
2023-02-22T04:58:16.310Z,24.1
2023-02-22T05:04:08.858Z,23.8
2023-02-22T05:09:45.608Z,24.1
2023-02-22T05:15:07.366Z,25.6
2023-02-22T05:21:00.273Z,26.6
2023-02-22T05:26:53.120Z,26.8
2023-02-22T05:32:47.191Z,25.6
2023-02-22T05:38:40.566Z,24.9
2023-02-22T05:44:32.761Z,24.2
2023-02-22T05:50:11.214Z,23.8
2023-02-22T05:56:04.482Z,24.3
2023-02-22T06:01:58.033Z,25.6
2023-02-22T06:07:34.855Z,25.4
2023-02-22T06:13:26.159Z,26.1
2023-02-22T06:19:19.003Z,26.8
2023-02-22T06:24:56.891Z,26.8
2023-02-22T06:30:34.003Z,25.1
2023-02-22T06:36:11.464Z,24.6
2023-02-22T06:41:49.571Z,24
2023-02-22T06:47:26.601Z,23.8
2023-02-22T06:53:05.880Z,24.7
2023-02-22T06:58:43.541Z,26.3
2023-02-22T07:04:20.334Z,26.8
2023-02-22T07:10:02.053Z,26.6
2023-02-22T07:15:39.291Z,25.4
2023-02-22T07:21:17.268Z,25.7
2023-02-22T07:26:40.376Z,26.9
2023-02-22T07:32:35.537Z,26.9
2023-02-22T07:38:28.537Z,26.6
2023-02-22T07:44:21.368Z,25.2
2023-02-22T07:50:14.596Z,26.8
2023-02-22T07:56:06.390Z,27
2023-02-22T08:01:58.483Z,26.8
2023-02-22T08:07:51.437Z,25.3
2023-02-22T08:13:28.346Z,26.5
2023-02-22T08:19:22.390Z,27.1
2023-02-22T08:25:15.575Z,26.9
2023-02-22T08:31:12.727Z,25.6
2023-02-22T08:37:07.232Z,26.3
2023-02-22T08:42:59.987Z,27.2
2023-02-22T08:48:53.258Z,26.9
2023-02-22T08:54:46.863Z,26
2023-02-22T09:00:39.606Z,25.9
2023-02-22T09:06:46.008Z,27.2
2023-02-22T09:12:42.247Z,26.9
2023-02-22T09:18:43.634Z,26
2023-02-22T09:24:37.086Z,26.4
2023-02-22T09:30:36.902Z,27.4
2023-02-22T09:36:18.547Z,27.1
2023-02-22T09:42:11.437Z,26.7
2023-02-22T09:48:19.360Z,26.3
2023-02-22T09:53:59.232Z,25.8
2023-02-22T09:59:36.441Z,25.4
2023-02-22T10:05:29.401Z,24.9
2023-02-22T10:10:51.511Z,24.5
2023-02-22T10:15:57.422Z,24.1
2023-02-22T10:21:51.464Z,23.9
2023-02-22T10:27:29.446Z,23.6
2023-02-22T10:33:27.908Z,23.3
2023-02-22T10:39:23.065Z,23
2023-02-22T10:44:46.043Z,22.8
2023-02-22T10:50:25.258Z,22.6
2023-02-22T10:56:07.609Z,22.4
2023-02-22T11:01:44.227Z,22.2
2023-02-22T11:07:22.201Z,22.1
2023-02-22T11:13:00.437Z,21.9
2023-02-22T11:18:25.438Z,21.8
2023-02-22T11:24:02.939Z,21.7
2023-02-22T11:29:48.983Z,21.6
2023-02-22T11:35:58.139Z,21.5
2023-02-22T11:41:19.807Z,21.3
2023-02-22T11:47:06.371Z,21.3
2023-02-22T11:53:00.773Z,21.2
2023-02-22T12:04:37.136Z,21
2023-02-22T12:10:36.134Z,20.9
2023-02-22T12:16:30.061Z,20.8
2023-02-22T12:22:32.430Z,20.8
2023-02-22T12:28:25.335Z,20.7
2023-02-22T12:34:19.345Z,20.8
2023-02-22T12:39:52.592Z,20.6
2023-02-22T12:45:46.198Z,20.6
2023-02-22T12:51:39.721Z,20.5
2023-02-22T12:57:43.430Z,20.4
2023-02-22T13:03:05.958Z,20.3
2023-02-22T13:09:12.234Z,20.1
2023-02-22T13:15:05.305Z,20.1
2023-02-22T13:20:43.631Z,20.1
2023-02-22T13:26:21.630Z,20.1
2023-02-22T13:32:30.689Z,20.1
2023-02-22T13:38:08.745Z,20.1
2023-02-22T13:44:01.385Z,20
2023-02-22T13:49:58.123Z,20
2023-02-22T13:55:53.335Z,20
2023-02-22T14:01:49.327Z,19.9
2023-02-22T14:07:43.411Z,20
2023-02-22T14:13:23.818Z,19.9
2023-02-22T14:19:25.105Z,20
2023-02-22T14:25:27.963Z,19.9
2023-02-22T14:31:34.746Z,19.9
2023-02-22T14:37:46.326Z,19.9
2023-02-22T14:43:41.998Z,19.9
2023-02-22T14:49:38.452Z,19.9
2023-02-22T14:55:45.015Z,19.9
2023-02-22T15:01:24.283Z,19.9
2023-02-22T15:07:42.531Z,19.9
2023-02-22T15:13:37.484Z,19.9
2023-02-22T15:19:42.041Z,19.9
2023-02-22T15:25:37.286Z,19.9
2023-02-22T15:31:27.285Z,20
2023-02-22T15:37:42.416Z,20
2023-02-22T15:43:35.999Z,20
2023-02-22T15:49:38.590Z,20
2023-02-22T15:55:41.933Z,20.1
2023-02-22T16:01:20.071Z,20.1
2023-02-22T16:07:23.790Z,20.1
2023-02-22T16:13:29.621Z,20
2023-02-22T16:19:42.674Z,20
2023-02-22T16:25:49.822Z,20
2023-02-22T16:31:37.731Z,20
2023-02-22T16:37:19.221Z,20
2023-02-22T16:43:12.795Z,20
2023-02-22T16:48:50.994Z,20.1
2023-02-22T16:54:28.686Z,20.1
2023-02-22T17:00:06.559Z,20.1
2023-02-22T17:06:00.153Z,20.1
2023-02-22T17:11:52.688Z,20.1
2023-02-22T17:17:46.473Z,20.1
2023-02-22T17:23:23.805Z,20
2023-02-22T17:29:02.037Z,20
2023-02-22T17:34:39.570Z,20.1
2023-02-22T17:40:35.231Z,20
2023-02-22T17:46:27.810Z,20
2023-02-22T17:58:38.436Z,20
2023-02-22T18:04:16.777Z,20
2023-02-22T18:09:38.817Z,20
2023-02-22T18:15:16.717Z,20
2023-02-22T18:20:54.984Z,20
2023-02-22T18:27:00.666Z,20
2023-02-22T18:32:54.297Z,19.9
2023-02-22T18:38:47.902Z,19.9
2023-02-22T18:44:41.814Z,20
2023-02-22T18:50:36.024Z,19.9
2023-02-22T18:56:33.756Z,20
2023-02-22T19:02:27.418Z,19.9
2023-02-22T19:08:21.829Z,19.9
2023-02-22T19:14:15.872Z,19.9
2023-02-22T19:20:15.612Z,19.9
2023-02-22T19:26:09.121Z,19.9
2023-02-22T19:32:03.222Z,19.9
2023-02-22T19:37:58.543Z,19.9
2023-02-22T19:43:56.164Z,19.9
2023-02-22T19:49:50.240Z,19.9
2023-02-22T19:55:43.898Z,19.8
2023-02-22T20:01:37.502Z,19.8
2023-02-22T20:07:32.394Z,19.8
2023-02-22T20:13:24.980Z,19.8
2023-02-22T20:19:02.945Z,19.8
2023-02-22T20:24:57.381Z,19.8
2023-02-22T20:30:38.017Z,19.8
2023-02-22T20:36:33.836Z,19.8
2023-02-22T20:42:11.542Z,19.8
2023-02-22T20:47:48.664Z,19.8
2023-02-22T20:53:42.242Z,19.8
2023-02-22T20:59:38.298Z,19.8
2023-02-22T21:05:33.468Z,20.3
2023-02-22T21:11:27.037Z,21.3
2023-02-22T21:17:23.531Z,23.4
2023-02-22T21:23:16.741Z,24.7
2023-02-22T21:29:08.968Z,25.4
2023-02-22T21:35:03.960Z,26
2023-02-22T21:40:56.508Z,25.4
2023-02-22T21:46:50.224Z,26.1
2023-02-22T21:52:43.494Z,26.4
2023-02-22T21:58:36.051Z,24.8
2023-02-22T22:04:29.634Z,25.9
2023-02-22T22:10:23.183Z,26.8
2023-02-22T22:16:21.405Z,26.8
2023-02-22T22:22:14.204Z,26
2023-02-22T22:28:08.474Z,26.9
2023-02-22T22:34:00.857Z,27.1
2023-02-22T22:39:37.697Z,25.5
2023-02-22T22:45:16.253Z,26.4
2023-02-22T22:50:53.593Z,27.2
2023-02-22T22:56:47.826Z,27.1
2023-02-22T23:02:41.978Z,25.6
2023-02-22T23:08:35.572Z,26.7
2023-02-22T23:14:28.593Z,27.3
2023-02-22T23:20:22.658Z,27.1
2023-02-22T23:26:14.488Z,25.9
2023-02-22T23:31:52.655Z,27.1
2023-02-22T23:37:46.928Z,27.4
2023-02-22T23:43:41.659Z,26.4
2023-02-22T23:49:19.775Z,25.3
2023-02-22T23:54:58.082Z,24.6
